sensor_id;sensor_type;location;lat;lon;timestamp;P1;durP1;ratioP1;P2;durP2;ratioP2
33162;SDS011;29282;45.656;11.302;2022-09-03T00:02:05;4.27;;;2.03;;
33162;SDS011;29282;45.656;11.302;2022-09-03T00:07:19;3.90;;;2.03;;
33162;SDS011;29282;45.656;11.302;2022-09-03T00:09:54;2.70;;;1.55;;
33162;SDS011;29282;45.656;11.302;2022-09-03T00:12:25;2.33;;;1.83;;
33162;SDS011;29282;45.656;11.302;2022-09-03T00:15:00;2.97;;;1.92;;
33162;SDS011;29282;45.656;11.302;2022-09-03T00:17:28;2.05;;;1.80;;
33162;SDS011;29282;45.656;11.302;2022-09-03T00:20:06;2.20;;;2.00;;
33162;SDS011;29282;45.656;11.302;2022-09-03T00:22:38;2.63;;;2.00;;
33162;SDS011;29282;45.656;11.302;2022-09-03T00:25:12;2.67;;;1.80;;
33162;SDS011;29282;45.656;11.302;2022-09-03T00:27:42;3.03;;;1.98;;
33162;SDS011;29282;45.656;11.302;2022-09-03T00:30:13;2.85;;;2.25;;
33162;SDS011;29282;45.656;11.302;2022-09-03T00:35:24;2.42;;;1.45;;
33162;SDS011;29282;45.656;11.302;2022-09-03T00:37:53;1.80;;;1.70;;
33162;SDS011;29282;45.656;11.302;2022-09-03T00:40:35;3.25;;;1.88;;
33162;SDS011;29282;45.656;11.302;2022-09-03T00:45:53;2.38;;;1.90;;
33162;SDS011;29282;45.656;11.302;2022-09-03T00:51:58;2.33;;;1.60;;
33162;SDS011;29282;45.656;11.302;2022-09-03T01:00:20;2.00;;;1.80;;
33162;SDS011;29282;45.656;11.302;2022-09-03T01:02:58;3.70;;;1.83;;
33162;SDS011;29282;45.656;11.302;2022-09-03T01:08:19;2.10;;;1.90;;
33162;SDS011;29282;45.656;11.302;2022-09-03T01:13:56;2.28;;;1.63;;
33162;SDS011;29282;45.656;11.302;2022-09-03T01:30:47;3.08;;;1.60;;
33162;SDS011;29282;45.656;11.302;2022-09-03T01:36:37;2.78;;;1.90;;
33162;SDS011;29282;45.656;11.302;2022-09-03T01:39:08;2.33;;;1.50;;
33162;SDS011;29282;45.656;11.302;2022-09-03T01:41:50;2.63;;;1.80;;
33162;SDS011;29282;45.656;11.302;2022-09-03T01:47:27;1.75;;;1.63;;
33162;SDS011;29282;45.656;11.302;2022-09-03T02:01:55;2.25;;;2.05;;
33162;SDS011;29282;45.656;11.302;2022-09-03T02:04:30;1.95;;;1.70;;
33162;SDS011;29282;45.656;11.302;2022-09-03T02:06:57;2.00;;;1.80;;
33162;SDS011;29282;45.656;11.302;2022-09-03T02:09:25;3.00;;;1.70;;
33162;SDS011;29282;45.656;11.302;2022-09-03T02:11:53;2.25;;;1.80;;
33162;SDS011;29282;45.656;11.302;2022-09-03T02:14:39;2.53;;;1.80;;
33162;SDS011;29282;45.656;11.302;2022-09-03T02:17:05;2.00;;;1.80;;
33162;SDS011;29282;45.656;11.302;2022-09-03T02:19:32;2.70;;;1.98;;
33162;SDS011;29282;45.656;11.302;2022-09-03T02:21:58;2.25;;;1.60;;
33162;SDS011;29282;45.656;11.302;2022-09-03T02:24:24;1.70;;;1.60;;
33162;SDS011;29282;45.656;11.302;2022-09-03T02:26:52;1.75;;;1.63;;
33162;SDS011;29282;45.656;11.302;2022-09-03T02:29:18;1.75;;;1.60;;
33162;SDS011;29282;45.656;11.302;2022-09-03T02:31:45;2.78;;;1.83;;
33162;SDS011;29282;45.656;11.302;2022-09-03T02:34:10;2.55;;;1.80;;
33162;SDS011;29282;45.656;11.302;2022-09-03T02:36:40;1.58;;;1.48;;
33162;SDS011;29282;45.656;11.302;2022-09-03T02:39:10;2.03;;;1.88;;
33162;SDS011;29282;45.656;11.302;2022-09-03T02:41:36;1.85;;;1.45;;
33162;SDS011;29282;45.656;11.302;2022-09-03T02:46:44;1.90;;;1.80;;
33162;SDS011;29282;45.656;11.302;2022-09-03T02:49:15;2.08;;;1.83;;
33162;SDS011;29282;45.656;11.302;2022-09-03T02:51:42;1.60;;;1.48;;
33162;SDS011;29282;45.656;11.302;2022-09-03T02:54:08;1.70;;;1.60;;
33162;SDS011;29282;45.656;11.302;2022-09-03T02:56:35;2.13;;;1.70;;
33162;SDS011;29282;45.656;11.302;2022-09-03T02:59:01;2.90;;;1.70;;
33162;SDS011;29282;45.656;11.302;2022-09-03T03:01:28;1.88;;;1.55;;
33162;SDS011;29282;45.656;11.302;2022-09-03T03:03:54;1.73;;;1.40;;
33162;SDS011;29282;45.656;11.302;2022-09-03T03:06:19;2.03;;;1.92;;
33162;SDS011;29282;45.656;11.302;2022-09-03T03:08:45;2.25;;;1.60;;
33162;SDS011;29282;45.656;11.302;2022-09-03T03:11:12;1.67;;;1.50;;
33162;SDS011;29282;45.656;11.302;2022-09-03T03:13:43;1.80;;;1.70;;
33162;SDS011;29282;45.656;11.302;2022-09-03T03:16:10;2.00;;;1.70;;
33162;SDS011;29282;45.656;11.302;2022-09-03T03:18:37;2.20;;;1.70;;
33162;SDS011;29282;45.656;11.302;2022-09-03T03:21:07;1.88;;;1.60;;
33162;SDS011;29282;45.656;11.302;2022-09-03T03:23:34;2.92;;;1.92;;
33162;SDS011;29282;45.656;11.302;2022-09-03T03:26:00;1.70;;;1.60;;
33162;SDS011;29282;45.656;11.302;2022-09-03T03:28:30;1.60;;;1.50;;
33162;SDS011;29282;45.656;11.302;2022-09-03T03:31:12;2.08;;;1.80;;
33162;SDS011;29282;45.656;11.302;2022-09-03T03:33:42;1.60;;;1.50;;
33162;SDS011;29282;45.656;11.302;2022-09-03T03:36:13;1.83;;;1.70;;
33162;SDS011;29282;45.656;11.302;2022-09-03T03:38:40;1.80;;;1.55;;
33162;SDS011;29282;45.656;11.302;2022-09-03T03:41:14;1.55;;;1.45;;
33162;SDS011;29282;45.656;11.302;2022-09-03T03:43:44;1.58;;;1.48;;
33162;SDS011;29282;45.656;11.302;2022-09-03T03:46:10;2.92;;;1.70;;
33162;SDS011;29282;45.656;11.302;2022-09-03T03:48:36;1.92;;;1.75;;
33162;SDS011;29282;45.656;11.302;2022-09-03T03:51:03;1.88;;;1.67;;
33162;SDS011;29282;45.656;11.302;2022-09-03T03:53:40;2.22;;;1.70;;
33162;SDS011;29282;45.656;11.302;2022-09-03T03:56:07;1.70;;;1.60;;
33162;SDS011;29282;45.656;11.302;2022-09-03T03:58:34;3.42;;;1.90;;
33162;SDS011;29282;45.656;11.302;2022-09-03T04:01:11;1.70;;;1.60;;
33162;SDS011;29282;45.656;11.302;2022-09-03T04:03:39;1.70;;;1.60;;
33162;SDS011;29282;45.656;11.302;2022-09-03T04:06:05;1.60;;;1.50;;
33162;SDS011;29282;45.656;11.302;2022-09-03T04:08:36;3.78;;;1.88;;
33162;SDS011;29282;45.656;11.302;2022-09-03T04:11:06;1.60;;;1.50;;
33162;SDS011;29282;45.656;11.302;2022-09-03T04:13:34;1.90;;;1.70;;
33162;SDS011;29282;45.656;11.302;2022-09-03T04:16:05;2.47;;;1.60;;
33162;SDS011;29282;45.656;11.302;2022-09-03T04:18:33;2.00;;;1.70;;
33162;SDS011;29282;45.656;11.302;2022-09-03T04:21:03;1.80;;;1.70;;
33162;SDS011;29282;45.656;11.302;2022-09-03T04:23:31;1.80;;;1.70;;
33162;SDS011;29282;45.656;11.302;2022-09-03T04:26:02;1.92;;;1.73;;
33162;SDS011;29282;45.656;11.302;2022-09-03T04:28:27;1.65;;;1.55;;
33162;SDS011;29282;45.656;11.302;2022-09-03T04:30:53;2.00;;;1.85;;
33162;SDS011;29282;45.656;11.302;2022-09-03T04:33:19;3.08;;;1.77;;
33162;SDS011;29282;45.656;11.302;2022-09-03T04:35:44;2.28;;;1.67;;
33162;SDS011;29282;45.656;11.302;2022-09-03T04:38:10;1.80;;;1.70;;
33162;SDS011;29282;45.656;11.302;2022-09-03T04:40:35;2.47;;;1.80;;
33162;SDS011;29282;45.656;11.302;2022-09-03T04:43:01;2.30;;;1.85;;
33162;SDS011;29282;45.656;11.302;2022-09-03T04:45:27;1.73;;;1.60;;
33162;SDS011;29282;45.656;11.302;2022-09-03T04:50:23;1.50;;;1.40;;
33162;SDS011;29282;45.656;11.302;2022-09-03T04:52:48;1.60;;;1.50;;
33162;SDS011;29282;45.656;11.302;2022-09-03T04:55:13;1.85;;;1.67;;
33162;SDS011;29282;45.656;11.302;2022-09-03T04:57:39;1.60;;;1.50;;
33162;SDS011;29282;45.656;11.302;2022-09-03T05:00:07;1.90;;;1.80;;
33162;SDS011;29282;45.656;11.302;2022-09-03T05:02:35;2.75;;;1.50;;
33162;SDS011;29282;45.656;11.302;2022-09-03T05:05:01;1.90;;;1.70;;
33162;SDS011;29282;45.656;11.302;2022-09-03T05:07:27;2.13;;;1.92;;
33162;SDS011;29282;45.656;11.302;2022-09-03T05:09:53;1.83;;;1.50;;
33162;SDS011;29282;45.656;11.302;2022-09-03T05:12:18;1.50;;;1.40;;
33162;SDS011;29282;45.656;11.302;2022-09-03T05:14:46;2.63;;;1.50;;
33162;SDS011;29282;45.656;11.302;2022-09-03T05:17:12;1.60;;;1.50;;
33162;SDS011;29282;45.656;11.302;2022-09-03T05:19:37;2.28;;;1.70;;
33162;SDS011;29282;45.656;11.302;2022-09-03T05:22:03;1.67;;;1.58;;
33162;SDS011;29282;45.656;11.302;2022-09-03T05:24:28;1.60;;;1.50;;
33162;SDS011;29282;45.656;11.302;2022-09-03T05:26:56;1.73;;;1.63;;
33162;SDS011;29282;45.656;11.302;2022-09-03T05:29:22;4.50;;;2.17;;
33162;SDS011;29282;45.656;11.302;2022-09-03T05:31:48;1.92;;;1.50;;
33162;SDS011;29282;45.656;11.302;2022-09-03T05:34:16;2.15;;;1.55;;
33162;SDS011;29282;45.656;11.302;2022-09-03T05:36:42;1.80;;;1.70;;
33162;SDS011;29282;45.656;11.302;2022-09-03T05:39:07;4.35;;;1.83;;
33162;SDS011;29282;45.656;11.302;2022-09-03T05:41:33;2.53;;;1.83;;
33162;SDS011;29282;45.656;11.302;2022-09-03T05:43:58;1.83;;;1.65;;
33162;SDS011;29282;45.656;11.302;2022-09-03T05:46:27;1.75;;;1.60;;
33162;SDS011;29282;45.656;11.302;2022-09-03T05:49:00;2.67;;;1.67;;
33162;SDS011;29282;45.656;11.302;2022-09-03T05:51:28;1.70;;;1.60;;
33162;SDS011;29282;45.656;11.302;2022-09-03T05:53:54;1.80;;;1.70;;
33162;SDS011;29282;45.656;11.302;2022-09-03T05:56:20;2.75;;;1.67;;
33162;SDS011;29282;45.656;11.302;2022-09-03T05:58:49;1.63;;;1.50;;
33162;SDS011;29282;45.656;11.302;2022-09-03T06:01:19;1.70;;;1.48;;
33162;SDS011;29282;45.656;11.302;2022-09-03T06:03:49;1.95;;;1.77;;
33162;SDS011;29282;45.656;11.302;2022-09-03T06:06:19;1.70;;;1.60;;
33162;SDS011;29282;45.656;11.302;2022-09-03T06:08:49;1.95;;;1.42;;
33162;SDS011;29282;45.656;11.302;2022-09-03T06:11:15;1.65;;;1.55;;
33162;SDS011;29282;45.656;11.302;2022-09-03T06:13:41;2.53;;;1.90;;
33162;SDS011;29282;45.656;11.302;2022-09-03T06:16:06;3.05;;;1.60;;
33162;SDS011;29282;45.656;11.302;2022-09-03T06:18:32;3.22;;;1.60;;
33162;SDS011;29282;45.656;11.302;2022-09-03T06:21:03;1.85;;;1.65;;
33162;SDS011;29282;45.656;11.302;2022-09-03T06:23:30;1.75;;;1.65;;
33162;SDS011;29282;45.656;11.302;2022-09-03T06:26:04;2.00;;;1.80;;
33162;SDS011;29282;45.656;11.302;2022-09-03T06:28:34;2.10;;;1.73;;
33162;SDS011;29282;45.656;11.302;2022-09-03T12:10:50;10.55;;;3.08;;
33162;SDS011;29282;45.656;11.302;2022-09-03T12:18:53;16.80;;;3.97;;
33162;SDS011;29282;45.656;11.302;2022-09-03T12:21:24;8.15;;;3.08;;
33162;SDS011;29282;45.656;11.302;2022-09-03T12:23:50;14.82;;;3.72;;
33162;SDS011;29282;45.656;11.302;2022-09-03T12:26:19;15.32;;;3.22;;
33162;SDS011;29282;45.656;11.302;2022-09-03T12:28:52;9.65;;;3.03;;
33162;SDS011;29282;45.656;11.302;2022-09-03T12:31:24;11.02;;;3.78;;
33162;SDS011;29282;45.656;11.302;2022-09-03T12:33:54;13.82;;;3.38;;
33162;SDS011;29282;45.656;11.302;2022-09-03T12:36:38;13.07;;;3.72;;
33162;SDS011;29282;45.656;11.302;2022-09-03T12:39:07;23.05;;;3.70;;
33162;SDS011;29282;45.656;11.302;2022-09-03T12:41:37;11.88;;;4.15;;
33162;SDS011;29282;45.656;11.302;2022-09-03T12:44:03;16.63;;;4.32;;
33162;SDS011;29282;45.656;11.302;2022-09-03T12:46:29;13.18;;;4.03;;
33162;SDS011;29282;45.656;11.302;2022-09-03T12:49:00;14.70;;;3.95;;
33162;SDS011;29282;45.656;11.302;2022-09-03T12:51:32;13.15;;;3.25;;
33162;SDS011;29282;45.656;11.302;2022-09-03T12:54:00;13.25;;;3.35;;
33162;SDS011;29282;45.656;11.302;2022-09-03T12:56:29;11.13;;;3.22;;
33162;SDS011;29282;45.656;11.302;2022-09-03T12:59:00;11.32;;;3.55;;
33162;SDS011;29282;45.656;11.302;2022-09-03T13:01:32;12.80;;;3.30;;
33162;SDS011;29282;45.656;11.302;2022-09-03T13:04:06;8.77;;;3.35;;
33162;SDS011;29282;45.656;11.302;2022-09-03T13:09:07;13.80;;;3.60;;
33162;SDS011;29282;45.656;11.302;2022-09-03T13:11:34;10.20;;;3.42;;
33162;SDS011;29282;45.656;11.302;2022-09-03T13:14:04;11.27;;;3.15;;
33162;SDS011;29282;45.656;11.302;2022-09-03T13:45:28;4.70;;;2.53;;
33162;SDS011;29282;45.656;11.302;2022-09-03T13:48:08;6.22;;;2.55;;
33162;SDS011;29282;45.656;11.302;2022-09-03T13:56:20;5.10;;;2.70;;
33162;SDS011;29282;45.656;11.302;2022-09-03T13:59:33;6.53;;;2.65;;
33162;SDS011;29282;45.656;11.302;2022-09-03T14:01:52;5.53;;;2.40;;
33162;SDS011;29282;45.656;11.302;2022-09-03T14:04:37;5.90;;;2.70;;
33162;SDS011;29282;45.656;11.302;2022-09-03T14:07:08;3.80;;;2.75;;
33162;SDS011;29282;45.656;11.302;2022-09-03T14:09:57;3.83;;;2.60;;
33162;SDS011;29282;45.656;11.302;2022-09-03T14:15:00;7.90;;;2.80;;
33162;SDS011;29282;45.656;11.302;2022-09-03T14:23:09;6.22;;;2.88;;
33162;SDS011;29282;45.656;11.302;2022-09-03T14:25:50;4.32;;;2.67;;
33162;SDS011;29282;45.656;11.302;2022-09-03T14:28:34;5.07;;;2.50;;
33162;SDS011;29282;45.656;11.302;2022-09-03T14:36:50;5.80;;;2.95;;
33162;SDS011;29282;45.656;11.302;2022-09-03T14:39:38;6.90;;;2.60;;
33162;SDS011;29282;45.656;11.302;2022-09-03T14:42:40;7.22;;;2.72;;
33162;SDS011;29282;45.656;11.302;2022-09-03T15:00:59;5.05;;;2.38;;
33162;SDS011;29282;45.656;11.302;2022-09-03T15:03:42;4.68;;;2.70;;
33162;SDS011;29282;45.656;11.302;2022-09-03T15:15:04;6.90;;;3.03;;
33162;SDS011;29282;45.656;11.302;2022-09-03T15:17:49;4.38;;;2.88;;
33162;SDS011;29282;45.656;11.302;2022-09-03T15:23:10;6.38;;;2.60;;
33162;SDS011;29282;45.656;11.302;2022-09-03T15:26:09;10.32;;;3.38;;
33162;SDS011;29282;45.656;11.302;2022-09-03T15:31:50;8.95;;;3.10;;
33162;SDS011;29282;45.656;11.302;2022-09-03T15:37:51;8.68;;;2.85;;
33162;SDS011;29282;45.656;11.302;2022-09-03T15:40:35;6.15;;;2.70;;
33162;SDS011;29282;45.656;11.302;2022-09-03T15:43:05;6.78;;;3.50;;
33162;SDS011;29282;45.656;11.302;2022-09-03T15:51:21;6.97;;;2.67;;
33162;SDS011;29282;45.656;11.302;2022-09-03T15:54:01;7.50;;;3.15;;
33162;SDS011;29282;45.656;11.302;2022-09-03T15:56:39;6.75;;;2.80;;
33162;SDS011;29282;45.656;11.302;2022-09-03T16:01:55;4.93;;;2.70;;
33162;SDS011;29282;45.656;11.302;2022-09-03T16:06:58;4.85;;;2.53;;
33162;SDS011;29282;45.656;11.302;2022-09-03T16:09:44;6.95;;;2.75;;
33162;SDS011;29282;45.656;11.302;2022-09-03T16:18:12;6.63;;;2.80;;
33162;SDS011;29282;45.656;11.302;2022-09-03T16:20:43;8.13;;;3.03;;
33162;SDS011;29282;45.656;11.302;2022-09-03T16:26:09;13.63;;;3.22;;
33162;SDS011;29282;45.656;11.302;2022-09-03T16:29:16;7.55;;;3.00;;
33162;SDS011;29282;45.656;11.302;2022-09-03T16:34:43;6.85;;;2.92;;
33162;SDS011;29282;45.656;11.302;2022-09-03T16:40:08;7.55;;;2.72;;
33162;SDS011;29282;45.656;11.302;2022-09-03T16:45:54;7.00;;;3.08;;
33162;SDS011;29282;45.656;11.302;2022-09-03T16:48:46;7.70;;;2.90;;
33162;SDS011;29282;45.656;11.302;2022-09-03T16:51:31;7.97;;;3.30;;
33162;SDS011;29282;45.656;11.302;2022-09-03T16:54:22;11.60;;;3.22;;
33162;SDS011;29282;45.656;11.302;2022-09-03T16:59:52;15.63;;;3.70;;
33162;SDS011;29282;45.656;11.302;2022-09-03T17:05:08;14.02;;;3.40;;
33162;SDS011;29282;45.656;11.302;2022-09-03T17:10:30;11.30;;;3.20;;
33162;SDS011;29282;45.656;11.302;2022-09-03T17:21:30;11.27;;;3.50;;
33162;SDS011;29282;45.656;11.302;2022-09-03T17:42:19;10.38;;;3.13;;
33162;SDS011;29282;45.656;11.302;2022-09-03T17:50:24;7.43;;;3.28;;
33162;SDS011;29282;45.656;11.302;2022-09-03T17:52:58;6.25;;;2.95;;
33162;SDS011;29282;45.656;11.302;2022-09-03T17:58:09;8.45;;;3.17;;
33162;SDS011;29282;45.656;11.302;2022-09-03T18:06:41;6.95;;;3.40;;
33162;SDS011;29282;45.656;11.302;2022-09-03T18:09:22;12.80;;;3.50;;
33162;SDS011;29282;45.656;11.302;2022-09-03T18:15:14;8.80;;;3.15;;
33162;SDS011;29282;45.656;11.302;2022-09-03T18:17:48;17.63;;;3.75;;
33162;SDS011;29282;45.656;11.302;2022-09-03T18:20:18;8.60;;;3.13;;
33162;SDS011;29282;45.656;11.302;2022-09-03T18:23:19;10.77;;;3.38;;
33162;SDS011;29282;45.656;11.302;2022-09-03T18:26:13;12.70;;;3.60;;
33162;SDS011;29282;45.656;11.302;2022-09-03T18:29:11;9.25;;;3.50;;
33162;SDS011;29282;45.656;11.302;2022-09-03T18:31:56;13.70;;;3.83;;
33162;SDS011;29282;45.656;11.302;2022-09-03T18:34:40;10.23;;;3.10;;
33162;SDS011;29282;45.656;11.302;2022-09-03T18:37:26;12.02;;;3.20;;
33162;SDS011;29282;45.656;11.302;2022-09-03T18:40:13;9.30;;;3.38;;
33162;SDS011;29282;45.656;11.302;2022-09-03T18:46:13;12.02;;;3.55;;
33162;SDS011;29282;45.656;11.302;2022-09-03T18:57:38;9.15;;;3.25;;
33162;SDS011;29282;45.656;11.302;2022-09-03T19:00:26;8.27;;;3.03;;
33162;SDS011;29282;45.656;11.302;2022-09-03T19:12:43;9.18;;;2.70;;
33162;SDS011;29282;45.656;11.302;2022-09-03T19:15:32;13.27;;;3.65;;
33162;SDS011;29282;45.656;11.302;2022-09-03T19:24:29;10.55;;;3.30;;
33162;SDS011;29282;45.656;11.302;2022-09-03T19:27:17;9.70;;;3.05;;
33162;SDS011;29282;45.656;11.302;2022-09-03T19:30:17;8.82;;;2.80;;
33162;SDS011;29282;45.656;11.302;2022-09-03T19:39:06;13.27;;;2.90;;
33162;SDS011;29282;45.656;11.302;2022-09-03T19:48:23;17.35;;;3.35;;
33162;SDS011;29282;45.656;11.302;2022-09-03T19:54:43;12.48;;;3.80;;
33162;SDS011;29282;45.656;11.302;2022-09-03T19:57:31;9.73;;;3.45;;
33162;SDS011;29282;45.656;11.302;2022-09-03T20:00:15;6.43;;;3.00;;
33162;SDS011;29282;45.656;11.302;2022-09-03T20:02:59;8.70;;;3.15;;
33162;SDS011;29282;45.656;11.302;2022-09-03T20:05:45;12.07;;;2.60;;
33162;SDS011;29282;45.656;11.302;2022-09-03T20:08:29;10.48;;;3.28;;
33162;SDS011;29282;45.656;11.302;2022-09-03T20:11:19;6.78;;;2.85;;
33162;SDS011;29282;45.656;11.302;2022-09-03T20:13:47;5.40;;;2.30;;
33162;SDS011;29282;45.656;11.302;2022-09-03T20:22:01;6.77;;;2.93;;
33162;SDS011;29282;45.656;11.302;2022-09-03T20:25:26;6.05;;;2.45;;
33162;SDS011;29282;45.656;11.302;2022-09-03T20:27:50;13.93;;;2.80;;
33162;SDS011;29282;45.656;11.302;2022-09-03T20:30:43;4.88;;;2.55;;
33162;SDS011;29282;45.656;11.302;2022-09-03T20:52:40;6.13;;;2.72;;
33162;SDS011;29282;45.656;11.302;2022-09-03T20:55:35;5.45;;;2.38;;
33162;SDS011;29282;45.656;11.302;2022-09-03T20:58:25;4.13;;;2.22;;
33162;SDS011;29282;45.656;11.302;2022-09-03T21:01:15;7.35;;;2.50;;
33162;SDS011;29282;45.656;11.302;2022-09-03T21:06:51;4.80;;;2.55;;
33162;SDS011;29282;45.656;11.302;2022-09-03T21:09:44;5.57;;;2.60;;
33162;SDS011;29282;45.656;11.302;2022-09-03T21:12:37;6.03;;;2.15;;
33162;SDS011;29282;45.656;11.302;2022-09-03T21:17:50;5.47;;;2.55;;
33162;SDS011;29282;45.656;11.302;2022-09-03T21:20:51;14.60;;;2.85;;
33162;SDS011;29282;45.656;11.302;2022-09-03T21:23:26;4.75;;;2.42;;
33162;SDS011;29282;45.656;11.302;2022-09-03T21:28:40;3.70;;;2.20;;
33162;SDS011;29282;45.656;11.302;2022-09-03T21:31:23;4.38;;;2.20;;
33162;SDS011;29282;45.656;11.302;2022-09-03T21:34:07;5.78;;;2.40;;
33162;SDS011;29282;45.656;11.302;2022-09-03T21:36:42;8.20;;;2.45;;
33162;SDS011;29282;45.656;11.302;2022-09-03T21:39:14;2.70;;;2.15;;
33162;SDS011;29282;45.656;11.302;2022-09-03T21:44:18;3.10;;;2.22;;
33162;SDS011;29282;45.656;11.302;2022-09-03T21:47:07;6.97;;;2.38;;
33162;SDS011;29282;45.656;11.302;2022-09-03T21:52:50;5.53;;;2.47;;
33162;SDS011;29282;45.656;11.302;2022-09-03T21:55:19;7.25;;;2.50;;
33162;SDS011;29282;45.656;11.302;2022-09-03T22:00:54;7.55;;;2.30;;
33162;SDS011;29282;45.656;11.302;2022-09-03T22:03:22;7.13;;;2.65;;
33162;SDS011;29282;45.656;11.302;2022-09-03T22:05:56;11.68;;;2.90;;
33162;SDS011;29282;45.656;11.302;2022-09-03T22:08:38;7.10;;;2.90;;
33162;SDS011;29282;45.656;11.302;2022-09-03T22:11:15;6.22;;;2.75;;
33162;SDS011;29282;45.656;11.302;2022-09-03T22:13:57;11.55;;;2.60;;
33162;SDS011;29282;45.656;11.302;2022-09-03T22:16:45;8.65;;;3.10;;
33162;SDS011;29282;45.656;11.302;2022-09-03T22:19:26;7.40;;;2.58;;
33162;SDS011;29282;45.656;11.302;2022-09-03T22:24:31;6.13;;;2.60;;
33162;SDS011;29282;45.656;11.302;2022-09-03T22:27:35;10.80;;;2.95;;
33162;SDS011;29282;45.656;11.302;2022-09-03T22:30:10;6.10;;;2.55;;
33162;SDS011;29282;45.656;11.302;2022-09-03T22:38:41;5.65;;;2.33;;
33162;SDS011;29282;45.656;11.302;2022-09-03T22:46:36;6.47;;;2.38;;
33162;SDS011;29282;45.656;11.302;2022-09-03T22:51:57;6.93;;;2.60;;
33162;SDS011;29282;45.656;11.302;2022-09-03T22:57:01;8.45;;;2.60;;
33162;SDS011;29282;45.656;11.302;2022-09-03T22:59:31;6.47;;;2.28;;
33162;SDS011;29282;45.656;11.302;2022-09-03T23:07:06;5.38;;;2.58;;
33162;SDS011;29282;45.656;11.302;2022-09-03T23:09:43;3.15;;;2.45;;
33162;SDS011;29282;45.656;11.302;2022-09-03T23:12:17;6.75;;;2.33;;
33162;SDS011;29282;45.656;11.302;2022-09-03T23:14:51;2.83;;;2.10;;
33162;SDS011;29282;45.656;11.302;2022-09-03T23:17:32;4.38;;;2.67;;
33162;SDS011;29282;45.656;11.302;2022-09-03T23:20:04;3.40;;;2.45;;
33162;SDS011;29282;45.656;11.302;2022-09-03T23:22:32;6.25;;;2.47;;
33162;SDS011;29282;45.656;11.302;2022-09-03T23:27:48;4.43;;;2.58;;
33162;SDS011;29282;45.656;11.302;2022-09-03T23:30:19;4.40;;;2.45;;
33162;SDS011;29282;45.656;11.302;2022-09-03T23:32:54;4.60;;;2.08;;
33162;SDS011;29282;45.656;11.302;2022-09-03T23:35:24;5.78;;;2.42;;
33162;SDS011;29282;45.656;11.302;2022-09-03T23:37:54;3.85;;;2.05;;
33162;SDS011;29282;45.656;11.302;2022-09-03T23:40:56;3.60;;;2.05;;
33162;SDS011;29282;45.656;11.302;2022-09-03T23:43:35;4.28;;;2.35;;
33162;SDS011;29282;45.656;11.302;2022-09-03T23:57:22;3.60;;;2.13;;
